createdAt,value
2023-05-11T00:00:37.668Z,10.0579
2023-05-11T00:01:41.020Z,10.0518
2023-05-11T00:02:44.426Z,10.0404
2023-05-11T00:04:09.115Z,10.0251
2023-05-11T00:04:50.482Z,10.0062
2023-05-11T00:05:53.806Z,9.9975
2023-05-11T00:06:57.164Z,9.9809
2023-05-11T00:08:00.559Z,9.9632
2023-05-11T00:09:04.222Z,9.9457
2023-05-11T00:10:07.606Z,9.9330
2023-05-11T00:11:10.944Z,9.9192
2023-05-11T00:12:14.272Z,9.9030
2023-05-11T00:13:17.611Z,9.8914
2023-05-11T00:14:21.052Z,9.8790
2023-05-11T00:15:24.312Z,9.8685
2023-05-11T00:16:27.820Z,9.8584
2023-05-11T00:17:31.169Z,9.8492
2023-05-11T00:18:34.487Z,9.8397
2023-05-11T00:19:38.235Z,9.8330
2023-05-11T00:20:41.558Z,9.8269
2023-05-11T00:21:44.908Z,9.8211
2023-05-11T00:22:48.230Z,9.8211
2023-05-11T00:23:51.583Z,9.8211
2023-05-11T00:24:55.222Z,9.8231
2023-05-11T00:25:58.548Z,9.8256
2023-05-11T00:27:02.103Z,9.8276
2023-05-11T00:28:05.434Z,9.8314
2023-05-11T00:29:08.819Z,9.8322
2023-05-11T00:30:12.150Z,9.8282
2023-05-11T00:31:15.527Z,9.8216
2023-05-11T00:32:19.125Z,9.8152
2023-05-11T00:33:22.455Z,9.8135
2023-05-11T00:34:25.799Z,9.8141
2023-05-11T00:35:29.113Z,9.8162
2023-05-11T00:36:32.431Z,9.8172
2023-05-11T00:37:35.791Z,9.8131
2023-05-11T00:38:39.106Z,9.8042
2023-05-11T00:39:42.462Z,9.7938
2023-05-11T00:40:45.804Z,9.7838
2023-05-11T00:41:49.152Z,9.7813
2023-05-11T00:42:52.495Z,9.7738
2023-05-11T00:43:55.844Z,9.7616
2023-05-11T00:44:59.194Z,9.7458
2023-05-11T00:46:02.528Z,9.7332
2023-05-11T00:47:06.012Z,9.7200
2023-05-11T00:48:09.461Z,9.7179
2023-05-11T00:49:12.909Z,9.7194
2023-05-11T00:50:16.402Z,9.7184
2023-05-11T00:51:19.853Z,9.7081
2023-05-11T00:52:23.195Z,9.7005
2023-05-11T00:53:26.612Z,9.6885
2023-05-11T00:54:29.907Z,9.6867
2023-05-11T00:55:33.221Z,9.6926
2023-05-11T00:56:36.582Z,9.6923
2023-05-11T00:57:39.921Z,9.6883
2023-05-11T00:58:43.302Z,9.6895
2023-05-11T00:59:46.623Z,9.6850
2023-05-11T01:00:50.004Z,9.6746
2023-05-11T01:01:53.371Z,9.6709
2023-05-11T01:02:56.661Z,9.6692
2023-05-11T01:04:00.021Z,9.6630
2023-05-11T01:05:03.393Z,9.6578
2023-05-11T01:06:06.721Z,9.6539
2023-05-11T01:07:10.048Z,9.6533
2023-05-11T01:08:13.436Z,9.6493
2023-05-11T01:09:16.746Z,9.6444
2023-05-11T01:10:20.261Z,9.6269
2023-05-11T01:11:23.713Z,9.6191
2023-05-11T01:12:27.031Z,9.6166
2023-05-11T01:13:30.371Z,9.6126
2023-05-11T01:14:33.942Z,9.6096
2023-05-11T01:15:37.289Z,9.6070
2023-05-11T01:16:40.664Z,9.6066
2023-05-11T01:17:44.070Z,9.6037
2023-05-11T01:18:47.422Z,9.6021
2023-05-11T01:19:50.760Z,9.5842
2023-05-11T01:20:54.079Z,9.5740
2023-05-11T01:21:57.649Z,9.5707
2023-05-11T01:23:01.017Z,9.5641
2023-05-11T01:24:04.364Z,9.5524
2023-05-11T01:25:07.722Z,9.5418
2023-05-11T01:26:07.788Z,9.5405
2023-05-11T01:27:11.166Z,9.5425
2023-05-11T01:28:14.459Z,9.5460
2023-05-11T01:29:17.801Z,9.5504
2023-05-11T01:30:21.142Z,9.5513
2023-05-11T01:31:24.541Z,9.5531
2023-05-11T01:32:26.051Z,9.5521
2023-05-11T01:33:29.374Z,9.5531
2023-05-11T01:34:32.975Z,9.5577
2023-05-11T01:35:36.314Z,9.5581
2023-05-11T01:36:39.643Z,9.5568
2023-05-11T01:37:42.984Z,9.5567
2023-05-11T01:38:46.302Z,9.5520
2023-05-11T01:39:49.668Z,9.5511
2023-05-11T01:40:53.002Z,9.5511
2023-05-11T01:41:54.489Z,9.5459
2023-05-11T01:42:57.819Z,9.5321
2023-05-11T01:44:01.208Z,9.5270
2023-05-11T01:45:04.570Z,9.5225
2023-05-11T01:46:07.988Z,9.5254
2023-05-11T01:47:11.295Z,9.5294
2023-05-11T01:48:14.642Z,9.5324
2023-05-11T01:49:17.989Z,9.5291
2023-05-11T01:50:21.405Z,9.5317
2023-05-11T01:51:24.809Z,9.5313
2023-05-11T01:52:28.183Z,9.5281
2023-05-11T01:53:31.498Z,9.5247
2023-05-11T01:54:34.840Z,9.5209
2023-05-11T01:55:38.153Z,9.5149
2023-05-11T01:56:41.508Z,9.5063
2023-05-11T01:57:44.810Z,9.4993
2023-05-11T01:58:48.146Z,9.4901
2023-05-11T01:59:51.481Z,9.4732
2023-05-11T02:00:54.854Z,9.4623
2023-05-11T02:01:58.254Z,9.4493
2023-05-11T02:03:01.702Z,9.4382
2023-05-11T02:04:05.286Z,9.4209
2023-05-11T02:06:11.206Z,9.4071
2023-05-11T02:06:11.206Z,9.3939
2023-05-11T02:07:10.824Z,9.3827
2023-05-11T02:08:14.176Z,9.3710
2023-05-11T02:09:17.495Z,9.3605
2023-05-11T02:11:22.754Z,9.3524
2023-05-11T02:11:22.754Z,9.3407
2023-05-11T02:12:22.395Z,9.3294
2023-05-11T02:13:25.730Z,9.3168
2023-05-11T02:14:29.054Z,9.3105
2023-05-11T02:15:32.419Z,9.3039
2023-05-11T02:16:35.733Z,9.3034
2023-05-11T02:17:39.348Z,9.2990
2023-05-11T02:18:42.693Z,9.2830
2023-05-11T02:19:46.044Z,9.2720
2023-05-11T02:20:49.384Z,9.2582
2023-05-11T02:21:52.774Z,9.2529
2023-05-11T02:22:56.140Z,9.2426
2023-05-11T02:23:59.451Z,9.2347
2023-05-11T02:25:03.039Z,9.2279
2023-05-11T02:26:06.435Z,9.2274
2023-05-11T02:27:10.003Z,9.2198
2023-05-11T02:28:13.353Z,9.2175
2023-05-11T02:29:16.676Z,9.2163
2023-05-11T02:30:20.169Z,9.2129
2023-05-11T02:31:23.764Z,9.2124
2023-05-11T02:32:27.217Z,9.2155
2023-05-11T02:33:30.548Z,9.2165
2023-05-11T02:34:33.867Z,9.2259
2023-05-11T02:35:37.186Z,9.2352
2023-05-11T02:36:40.535Z,9.2413
2023-05-11T02:37:43.846Z,9.2453
2023-05-11T02:38:47.206Z,9.2437
2023-05-11T02:39:50.531Z,9.2463
2023-05-11T02:40:53.874Z,9.2490
2023-05-11T02:41:57.274Z,9.2533
2023-05-11T02:43:00.607Z,9.2556
2023-05-11T02:44:03.957Z,9.2573
2023-05-11T02:45:07.347Z,9.2562
2023-05-11T02:46:10.722Z,9.2568
2023-05-11T02:47:14.102Z,9.2609
2023-05-11T02:48:17.445Z,9.2646
2023-05-11T02:49:20.818Z,9.2683
2023-05-11T02:50:24.294Z,9.2733
2023-05-11T02:51:27.686Z,9.2767
2023-05-11T02:52:31.028Z,9.2805
2023-05-11T02:53:34.401Z,9.2811
2023-05-11T02:54:37.744Z,9.2790
2023-05-11T02:55:41.132Z,9.2802
2023-05-11T02:56:44.513Z,9.2836
2023-05-11T02:57:44.585Z,9.2870
2023-05-11T02:58:47.942Z,9.2895
2023-05-11T02:59:51.353Z,9.2927
2023-05-11T03:00:54.731Z,9.2964
2023-05-11T03:01:54.886Z,9.2980
2023-05-11T03:02:58.330Z,9.3016
2023-05-11T03:04:01.707Z,9.3072
2023-05-11T03:05:01.686Z,9.3132
2023-05-11T03:06:05.065Z,9.3198
2023-05-11T03:07:08.418Z,9.3273
2023-05-11T03:08:11.790Z,9.3383
2023-05-11T03:09:15.122Z,9.3501
2023-05-11T03:10:18.775Z,9.3595
2023-05-11T03:11:18.611Z,9.3629
2023-05-11T03:12:21.978Z,9.3694
2023-05-11T03:13:25.323Z,9.3834
2023-05-11T03:14:28.931Z,9.3971
2023-05-11T03:15:32.276Z,9.4081
2023-05-11T03:16:35.741Z,9.4166
2023-05-11T03:17:39.114Z,9.4279
2023-05-11T03:18:42.528Z,9.4414
2023-05-11T03:19:45.868Z,9.4433
2023-05-11T03:20:49.228Z,9.4488
2023-05-11T03:21:52.626Z,9.4516
2023-05-11T03:22:55.978Z,9.4585
2023-05-11T03:23:59.128Z,9.4627
2023-05-11T03:25:02.517Z,9.4695
2023-05-11T03:26:05.845Z,9.4739
2023-05-11T03:27:09.214Z,9.4788
2023-05-11T03:28:12.574Z,9.4773
2023-05-11T03:29:15.930Z,9.4779
2023-05-11T03:30:19.477Z,9.4723
2023-05-11T03:31:19.343Z,9.4728
2023-05-11T03:32:22.930Z,9.4742
2023-05-11T03:33:26.321Z,9.4716
2023-05-11T03:34:29.741Z,9.4714
2023-05-11T03:35:33.109Z,9.4720
2023-05-11T03:36:36.461Z,9.4723
2023-05-11T03:37:39.861Z,9.4717
2023-05-11T03:38:43.250Z,9.4721
2023-05-11T03:39:46.667Z,9.4733
2023-05-11T03:40:50.029Z,9.4815
2023-05-11T03:41:53.423Z,9.4854
2023-05-11T03:42:56.971Z,9.4864
2023-05-11T03:44:00.357Z,9.4895
2023-05-11T03:45:03.981Z,9.4888
2023-05-11T03:46:07.438Z,9.4906
2023-05-11T03:47:10.790Z,9.4921
2023-05-11T03:48:14.193Z,9.4877
2023-05-11T03:49:17.572Z,9.4854
2023-05-11T03:50:20.337Z,9.4752
2023-05-11T03:51:23.685Z,9.4733
2023-05-11T03:52:27.098Z,9.4754
2023-05-11T03:53:30.462Z,9.4736
2023-05-11T03:54:33.828Z,9.4699
2023-05-11T03:55:37.192Z,9.4732
2023-05-11T03:56:40.572Z,9.4769
2023-05-11T03:57:43.944Z,9.4817
2023-05-11T03:58:47.287Z,9.4899
2023-05-11T03:59:50.668Z,9.4945
2023-05-11T04:00:54.085Z,9.5014
2023-05-11T04:01:57.440Z,9.5066
2023-05-11T04:03:00.916Z,9.5114
2023-05-11T04:04:04.467Z,9.5116
2023-05-11T04:05:07.840Z,9.5149
2023-05-11T04:06:11.188Z,9.5191
2023-05-11T04:07:14.608Z,9.5202
2023-05-11T04:08:18.011Z,9.5148
2023-05-11T04:09:21.395Z,9.5108
2023-05-11T04:10:24.776Z,9.5086
2023-05-11T04:11:28.167Z,9.5054
2023-05-11T04:12:31.562Z,9.5101
2023-05-11T04:13:34.937Z,9.5110
2023-05-11T04:14:38.312Z,9.5088
2023-05-11T04:15:41.693Z,9.5089
2023-05-11T04:16:45.053Z,9.5109
2023-05-11T04:17:48.426Z,9.5162
2023-05-11T04:18:51.807Z,9.5224
2023-05-11T04:19:55.172Z,9.5284
2023-05-11T04:20:58.534Z,9.5342
2023-05-11T04:22:01.889Z,9.5426
2023-05-11T04:23:05.602Z,9.5461
2023-05-11T04:24:09.033Z,9.5551
2023-05-11T04:25:12.389Z,9.5636
2023-05-11T04:26:15.737Z,9.5702
2023-05-11T04:27:19.352Z,9.5783
2023-05-11T04:28:22.755Z,9.5877
2023-05-11T04:29:26.110Z,9.5958
2023-05-11T04:30:30.245Z,9.5979
2023-05-11T04:31:29.974Z,9.5990
2023-05-11T04:32:30.046Z,9.6030
2023-05-11T04:33:33.380Z,9.6048
2023-05-11T04:34:36.745Z,9.6043
2023-05-11T04:35:40.149Z,9.6103
2023-05-11T04:36:40.132Z,9.6171
2023-05-11T04:37:43.500Z,9.6192
2023-05-11T04:38:46.925Z,9.6160
2023-05-11T04:39:50.294Z,9.6169
2023-05-11T04:40:53.648Z,9.6215
2023-05-11T04:41:57.027Z,9.6225
2023-05-11T04:43:00.441Z,9.6285
2023-05-11T04:44:03.794Z,9.6333
2023-05-11T04:45:07.169Z,9.6329
2023-05-11T04:46:10.578Z,9.6357
2023-05-11T04:47:13.984Z,9.6362
2023-05-11T04:48:20.375Z,9.6488
2023-05-11T04:49:20.422Z,9.6615
2023-05-11T04:50:23.804Z,9.6661
2023-05-11T04:51:27.202Z,9.6783
2023-05-11T04:52:30.602Z,9.6870
2023-05-11T04:53:33.956Z,9.6959
2023-05-11T04:54:37.325Z,9.7093
2023-05-11T04:55:40.734Z,9.7163
2023-05-11T04:56:44.099Z,9.7249
2023-05-11T04:57:47.486Z,9.7368
2023-05-11T04:58:50.854Z,9.7464
2023-05-11T04:59:54.225Z,9.7545
2023-05-11T05:00:57.617Z,9.7677
2023-05-11T05:02:00.968Z,9.7774
2023-05-11T05:03:01.096Z,9.7804
2023-05-11T05:04:04.511Z,9.7835
2023-05-11T05:05:07.816Z,9.7893
2023-05-11T05:06:11.172Z,9.7934
2023-05-11T05:07:14.537Z,9.8037
2023-05-11T05:08:18.153Z,9.8103
2023-05-11T05:09:21.505Z,9.8152
2023-05-11T05:10:24.858Z,9.8276
2023-05-11T05:11:28.249Z,9.8400
2023-05-11T05:12:31.601Z,9.8466
2023-05-11T05:13:35.010Z,9.8508
2023-05-11T05:14:38.411Z,9.8578
2023-05-11T05:15:41.809Z,9.8719
2023-05-11T05:16:45.179Z,9.8942
2023-05-11T05:17:48.603Z,9.9171
2023-05-11T05:18:51.978Z,9.9395
2023-05-11T05:19:52.378Z,9.9597
2023-05-11T05:20:55.764Z,9.9796
2023-05-11T05:21:59.143Z,10.0034
2023-05-11T05:23:02.532Z,10.0279
2023-05-11T05:24:05.919Z,10.0474
2023-05-11T05:25:09.327Z,10.0646
2023-05-11T05:26:12.379Z,10.0847
2023-05-11T05:27:15.716Z,10.1108
2023-05-11T05:28:19.370Z,10.1376
2023-05-11T05:29:22.705Z,10.1619
2023-05-11T05:30:26.078Z,10.1806
2023-05-11T05:31:29.536Z,10.1946
2023-05-11T05:32:33.032Z,10.2030
2023-05-11T05:33:36.419Z,10.2120
2023-05-11T05:34:39.790Z,10.2293
2023-05-11T05:36:43.363Z,10.2533
2023-05-11T05:36:43.363Z,10.2754
2023-05-11T05:37:46.973Z,10.2911
2023-05-11T05:38:50.369Z,10.3062
2023-05-11T05:39:53.737Z,10.3203
2023-05-11T05:40:57.106Z,10.3352
2023-05-11T05:42:00.458Z,10.3446
2023-05-11T05:43:03.838Z,10.3544
2023-05-11T05:44:07.245Z,10.3650
2023-05-11T05:45:12.449Z,10.3741
2023-05-11T05:46:13.548Z,10.3821
2023-05-11T05:47:16.890Z,10.3923
2023-05-11T05:48:20.603Z,10.3993
2023-05-11T05:49:23.929Z,10.4115
2023-05-11T05:50:27.347Z,10.4234
2023-05-11T05:51:30.708Z,10.4348
2023-05-11T05:52:34.063Z,10.4488
2023-05-11T05:53:37.476Z,10.4660
2023-05-11T05:54:40.880Z,10.4804
2023-05-11T05:55:44.461Z,10.4934
2023-05-11T05:56:47.823Z,10.5071
2023-05-11T05:57:51.198Z,10.5163
2023-05-11T05:58:54.845Z,10.5304
2023-05-11T05:59:54.787Z,10.5390
2023-05-11T06:00:58.189Z,10.5399
2023-05-11T06:02:01.546Z,10.5435
2023-05-11T06:03:05.205Z,10.5441
2023-05-11T06:04:08.721Z,10.5499
2023-05-11T06:05:12.272Z,10.5530
2023-05-11T06:06:15.618Z,10.5510
2023-05-11T06:07:19.021Z,10.5401
2023-05-11T06:08:22.379Z,10.5314
2023-05-11T06:09:25.774Z,10.5359
2023-05-11T06:10:29.500Z,10.5479
2023-05-11T06:11:32.844Z,10.5682
2023-05-11T06:12:36.246Z,10.5926
2023-05-11T06:13:39.748Z,10.6140
2023-05-11T06:14:43.068Z,10.6305
2023-05-11T06:15:46.439Z,10.6471
2023-05-11T06:16:49.789Z,10.6571
2023-05-11T06:17:51.089Z,10.6617
2023-05-11T06:18:54.227Z,10.6676
2023-05-11T06:19:57.670Z,10.6786
2023-05-11T06:21:01.037Z,10.6893
2023-05-11T06:22:06.530Z,10.7021
2023-05-11T06:23:06.788Z,10.7366
2023-05-11T06:24:10.152Z,10.7756
2023-05-11T06:25:13.532Z,10.8186
2023-05-11T06:26:16.863Z,10.8645
2023-05-11T06:27:20.244Z,10.9125
2023-05-11T06:28:23.867Z,10.9560
2023-05-11T06:29:27.240Z,10.9991
2023-05-11T06:30:30.620Z,11.0386
2023-05-11T06:31:34.039Z,11.0853
2023-05-11T06:32:37.389Z,11.1293
2023-05-11T06:33:40.755Z,11.1735
2023-05-11T06:34:44.104Z,11.1961
2023-05-11T06:35:47.477Z,11.2244
2023-05-11T06:36:50.850Z,11.2674
2023-05-11T06:37:54.470Z,11.3139
2023-05-11T06:38:57.840Z,11.3649
2023-05-11T06:40:01.240Z,11.4272
2023-05-11T06:41:04.612Z,11.4974
2023-05-11T06:42:08.052Z,11.5731
2023-05-11T06:43:11.582Z,11.6490
2023-05-11T06:44:14.972Z,11.7105
2023-05-11T06:45:18.367Z,11.7489
2023-05-11T06:46:21.724Z,11.7764
2023-05-11T06:47:25.095Z,11.8127
2023-05-11T06:48:28.486Z,11.8366
2023-05-11T06:49:31.859Z,11.8524
2023-05-11T06:50:35.454Z,11.8705
2023-05-11T06:51:38.831Z,11.8907
2023-05-11T06:52:42.238Z,11.8991
2023-05-11T06:53:45.578Z,11.9053
2023-05-11T06:54:48.967Z,11.9281
2023-05-11T06:55:52.363Z,11.9541
2023-05-11T06:56:55.754Z,11.9675
2023-05-11T06:57:59.141Z,11.9915
2023-05-11T06:59:02.559Z,12.0451
2023-05-11T07:00:05.927Z,12.0969
2023-05-11T07:01:09.453Z,12.1490
2023-05-11T07:02:12.837Z,12.2066
2023-05-11T07:03:12.887Z,12.2525
2023-05-11T07:04:16.352Z,12.2979
2023-05-11T07:05:16.417Z,12.3490
2023-05-11T07:06:19.829Z,12.4035
2023-05-11T07:07:23.192Z,12.4505
2023-05-11T07:08:26.850Z,12.4933
2023-05-11T07:09:30.235Z,12.5377
2023-05-11T07:10:33.644Z,12.5839
2023-05-11T07:11:36.968Z,12.6216
2023-05-11T07:12:40.339Z,12.6523
2023-05-11T07:13:43.692Z,12.6915
2023-05-11T07:14:47.129Z,12.7233
2023-05-11T07:15:50.506Z,12.7668
2023-05-11T07:16:53.900Z,12.7997
2023-05-11T07:17:57.330Z,12.8558
2023-05-11T07:19:00.688Z,12.9269
2023-05-11T07:20:04.040Z,12.9943
2023-05-11T07:21:07.431Z,13.0476
2023-05-11T07:22:11.820Z,13.0923
2023-05-11T07:23:14.012Z,13.1415
2023-05-11T07:24:17.371Z,13.1830
2023-05-11T07:25:20.760Z,13.2228
2023-05-11T07:26:24.160Z,13.2503
2023-05-11T07:27:27.563Z,13.2926
2023-05-11T07:28:31.186Z,13.3268
2023-05-11T07:29:34.579Z,13.3313
2023-05-11T07:30:35.776Z,13.2980
2023-05-11T07:31:38.820Z,13.2652
2023-05-11T07:32:42.209Z,13.2482
2023-05-11T07:33:45.858Z,13.2560
2023-05-11T07:34:49.233Z,13.2764
2023-05-11T07:35:52.637Z,13.3050
2023-05-11T07:36:52.641Z,13.3342
2023-05-11T07:37:55.965Z,13.3494
2023-05-11T07:38:59.346Z,13.3570
2023-05-11T07:40:02.776Z,13.3436
2023-05-11T07:41:07.435Z,13.3002
2023-05-11T07:42:08.029Z,13.2374
2023-05-11T07:43:11.397Z,13.1574
2023-05-11T07:44:14.781Z,13.1072
2023-05-11T07:45:18.151Z,13.0854
2023-05-11T07:46:21.625Z,13.0960
2023-05-11T07:47:25.047Z,13.1257
2023-05-11T07:48:28.391Z,13.1644
2023-05-11T07:49:42.851Z,13.2065
2023-05-11T07:50:33.670Z,13.2678
2023-05-11T07:51:37.030Z,13.3264
2023-05-11T07:52:40.728Z,13.3734
2023-05-11T07:53:44.063Z,13.4738
2023-05-11T07:54:47.477Z,13.6017
2023-05-11T07:55:50.883Z,13.7477
2023-05-11T07:56:54.236Z,13.9130
2023-05-11T07:57:57.573Z,14.0675
2023-05-11T07:59:00.966Z,14.1628
2023-05-11T08:00:04.348Z,14.2236
2023-05-11T08:01:07.784Z,14.2461
2023-05-11T08:02:13.069Z,14.2094
2023-05-11T08:03:13.047Z,14.1718
2023-05-11T08:04:16.411Z,14.1072
2023-05-11T08:05:20.110Z,14.0217
2023-05-11T08:06:20.090Z,13.9111
2023-05-11T08:07:23.401Z,13.8137
2023-05-11T08:08:26.781Z,13.7249
2023-05-11T08:09:30.164Z,13.6453
2023-05-11T08:10:33.548Z,13.5852
2023-05-11T08:11:36.956Z,13.5590
2023-05-11T08:12:40.342Z,13.5444
2023-05-11T08:13:43.739Z,13.5353
2023-05-11T08:14:47.099Z,13.5602
2023-05-11T08:15:49.950Z,13.5949
2023-05-11T08:16:53.522Z,13.6633
2023-05-11T08:17:56.962Z,13.7309
2023-05-11T08:19:00.386Z,13.7993
2023-05-11T08:20:03.826Z,13.8440
2023-05-11T08:21:07.186Z,13.8894
2023-05-11T08:22:10.572Z,13.9389
2023-05-11T08:23:13.940Z,13.9897
2023-05-11T08:24:17.331Z,14.0640
2023-05-11T08:25:20.747Z,14.1707
2023-05-11T08:26:24.090Z,14.2861
2023-05-11T08:27:27.468Z,14.4128
2023-05-11T08:28:30.844Z,14.5208
2023-05-11T08:29:34.240Z,14.6164
2023-05-11T08:30:37.383Z,14.6547
2023-05-11T08:31:40.776Z,14.6959
2023-05-11T08:33:46.578Z,14.8650
2023-05-11T08:34:50.052Z,14.9700
2023-05-11T08:35:53.451Z,15.0721
2023-05-11T08:36:56.800Z,15.1889
2023-05-11T08:38:00.189Z,15.3151
2023-05-11T08:39:03.545Z,15.4462
2023-05-11T08:40:06.983Z,15.5716
2023-05-11T08:41:10.339Z,15.7257
2023-05-11T08:43:16.296Z,15.8851
2023-05-11T08:43:16.296Z,16.0230
2023-05-11T08:44:19.652Z,16.1610
2023-05-11T08:45:23.042Z,16.2717
2023-05-11T08:46:26.461Z,16.3762
2023-05-11T08:47:34.021Z,16.4226
2023-05-11T08:48:37.411Z,16.5570
2023-05-11T08:49:40.787Z,16.7193
2023-05-11T08:50:44.179Z,16.9093
2023-05-11T08:51:47.566Z,17.1103
2023-05-11T08:52:50.987Z,17.3114
2023-05-11T08:53:54.349Z,17.5433
2023-05-11T08:54:57.752Z,17.7988
2023-05-11T08:56:01.432Z,18.1027
2023-05-11T08:57:04.807Z,18.3872
2023-05-11T08:58:08.167Z,18.6895
2023-05-11T08:59:11.562Z,18.8994
2023-05-11T09:00:14.985Z,19.1197
2023-05-11T09:01:18.331Z,19.4058
2023-05-11T09:02:21.792Z,19.7220
2023-05-11T09:03:25.149Z,20.0048
2023-05-11T09:04:28.507Z,20.1104
2023-05-11T09:05:31.923Z,20.1006
2023-05-11T09:06:35.346Z,20.0565
2023-05-11T09:07:38.720Z,20.2698
2023-05-11T09:08:42.084Z,20.8071
2023-05-11T09:09:45.466Z,21.3281
2023-05-11T09:10:48.846Z,21.6458
2023-05-11T09:11:52.233Z,21.6813
2023-05-11T09:12:55.588Z,21.5249
2023-05-11T09:13:58.969Z,21.2899
2023-05-11T09:15:17.464Z,21.0665
2023-05-11T09:16:04.372Z,20.8715
2023-05-11T09:17:07.933Z,20.6968
2023-05-11T09:18:08.073Z,20.5182
2023-05-11T09:19:11.111Z,20.3244
2023-05-11T09:20:14.469Z,20.1536
2023-05-11T09:21:17.848Z,20.0119
2023-05-11T09:22:21.248Z,19.8736
2023-05-11T09:23:24.659Z,19.9042
2023-05-11T09:24:28.082Z,20.1238
2023-05-11T09:25:31.684Z,20.5037
2023-05-11T09:26:35.061Z,20.8754
2023-05-11T09:27:41.014Z,21.1515
2023-05-11T09:29:41.641Z,21.3306
2023-05-11T09:30:45.044Z,21.4516
2023-05-11T09:31:48.575Z,21.4489
2023-05-11T09:32:52.170Z,21.3948
2023-05-11T09:33:55.563Z,21.5884
2023-05-11T09:34:58.937Z,21.8996
2023-05-11T09:36:00.077Z,22.1769
2023-05-11T09:37:03.427Z,22.3591
2023-05-11T09:38:06.833Z,22.3303
2023-05-11T09:39:15.452Z,22.1954
2023-05-11T09:41:14.618Z,21.8360
2023-05-11T09:42:18.043Z,21.7537
2023-05-11T09:43:21.435Z,21.6486
2023-05-11T09:44:24.851Z,21.5792
2023-05-11T09:45:28.247Z,21.5179
2023-05-11T09:46:31.681Z,21.4750
2023-05-11T09:47:35.065Z,21.5550
2023-05-11T09:48:38.617Z,21.7793
2023-05-11T09:49:38.535Z,22.0365
2023-05-11T09:50:41.951Z,22.2035
2023-05-11T09:51:45.351Z,22.3015
2023-05-11T09:52:48.778Z,22.4001
2023-05-11T09:54:54.412Z,22.0930
2023-05-11T09:54:54.412Z,22.2114
2023-05-11T09:55:57.800Z,22.1169
2023-05-11T09:57:01.202Z,22.1542
2023-05-11T09:58:04.880Z,22.1714
2023-05-11T09:59:08.277Z,22.1692
2023-05-11T10:00:11.691Z,22.1377
2023-05-11T10:01:15.092Z,22.0524
2023-05-11T10:02:18.556Z,21.8724
2023-05-11T10:03:22.127Z,21.6558
2023-05-11T10:05:25.947Z,21.3669
2023-05-11T10:05:25.947Z,20.9482
2023-05-11T10:06:29.344Z,20.6715
2023-05-11T10:07:32.785Z,20.3427
2023-05-11T10:08:36.147Z,20.0264
2023-05-11T10:09:39.533Z,19.7542
2023-05-11T10:10:42.982Z,19.5107
2023-05-11T10:11:43.000Z,19.3002
2023-05-11T10:12:46.435Z,19.0830
2023-05-11T10:13:49.828Z,18.8548
2023-05-11T10:14:53.240Z,18.6423
2023-05-11T10:15:56.670Z,18.4550
2023-05-11T10:17:00.054Z,18.3045
2023-05-11T10:18:03.598Z,18.1801
2023-05-11T10:19:07.193Z,18.0748
2023-05-11T10:20:10.638Z,17.9870
2023-05-11T10:21:14.041Z,17.9066
2023-05-11T10:22:30.254Z,17.8326
2023-05-11T10:23:26.241Z,17.7219
2023-05-11T10:24:29.638Z,17.6379
2023-05-11T10:25:33.053Z,17.5462
2023-05-11T10:26:36.492Z,17.4509
2023-05-11T10:27:40.173Z,17.3913
2023-05-11T10:28:43.612Z,17.3598
2023-05-11T10:29:47.013Z,17.3460
2023-05-11T10:30:50.402Z,17.3476
2023-05-11T10:31:53.846Z,17.3695
2023-05-11T10:32:57.279Z,17.4090
2023-05-11T10:34:00.675Z,17.4525
2023-05-11T10:35:04.209Z,17.4785
2023-05-11T10:36:07.580Z,17.5032
2023-05-11T10:37:10.997Z,17.4993
2023-05-11T10:38:14.366Z,17.4788
2023-05-11T10:39:17.774Z,17.4584
2023-05-11T10:40:21.280Z,17.4487
2023-05-11T10:41:24.756Z,17.4646
2023-05-11T10:42:28.309Z,17.4956
2023-05-11T10:43:31.737Z,17.5226
2023-05-11T10:44:35.254Z,17.5467
2023-05-11T10:45:38.654Z,17.5421
2023-05-11T10:46:42.043Z,17.5012
2023-05-11T10:47:45.512Z,17.4533
2023-05-11T10:48:48.921Z,17.4264
2023-05-11T10:50:54.240Z,17.4303
2023-05-11T10:50:54.240Z,17.4214
2023-05-11T10:51:57.676Z,17.4434
2023-05-11T10:53:01.064Z,17.4372
2023-05-11T10:54:04.489Z,17.3954
2023-05-11T10:55:08.126Z,17.3522
2023-05-11T10:56:11.614Z,17.3113
2023-05-11T10:57:11.574Z,17.2761
2023-05-11T10:58:15.174Z,17.2397
2023-05-11T10:59:18.576Z,17.1749
2023-05-11T11:00:22.201Z,17.1112
2023-05-11T11:01:22.243Z,17.0619
2023-05-11T11:02:25.905Z,17.0040
2023-05-11T11:03:29.603Z,16.9530
2023-05-11T11:56:30.565Z,12.8902
2023-05-11T11:57:32.963Z,12.8657
2023-05-11T11:58:35.152Z,12.8372
2023-05-11T11:59:37.370Z,12.8103
2023-05-11T12:00:39.549Z,12.7900
2023-05-11T12:01:41.792Z,12.7784
2023-05-11T12:02:44.170Z,12.7745
2023-05-11T12:03:46.567Z,12.7685
2023-05-11T12:04:48.903Z,12.7574
2023-05-11T12:05:51.107Z,12.7501
2023-05-11T12:06:53.288Z,12.7423
2023-05-11T12:07:55.545Z,12.7296
2023-05-11T12:08:57.905Z,12.7163
2023-05-11T12:10:00.385Z,12.7097
2023-05-11T12:11:03.121Z,12.7062
2023-05-11T12:12:02.798Z,12.7049
2023-05-11T12:13:05.045Z,12.7092
2023-05-11T12:14:07.301Z,12.7169
2023-05-11T12:15:09.750Z,12.7243
2023-05-11T12:16:12.168Z,12.7305
2023-05-11T12:17:14.524Z,12.7366
2023-05-11T12:18:16.895Z,12.7429
2023-05-11T12:19:19.163Z,12.7439
2023-05-11T12:20:21.452Z,12.7388
2023-05-11T12:21:23.715Z,12.7322
2023-05-11T12:22:25.922Z,12.7235
2023-05-11T12:23:28.214Z,12.7138
2023-05-11T12:24:30.547Z,12.7026
2023-05-11T12:25:32.844Z,12.6922
2023-05-11T12:26:35.021Z,12.6809
2023-05-11T12:27:37.210Z,12.6595
2023-05-11T12:28:39.422Z,12.6409
2023-05-11T12:29:41.653Z,12.6296
2023-05-11T12:30:43.920Z,12.6227
2023-05-11T12:31:46.184Z,12.6148
2023-05-11T12:32:48.551Z,12.6057
2023-05-11T12:33:50.736Z,12.5967
2023-05-11T12:34:52.934Z,12.5864
2023-05-11T12:35:55.135Z,12.5733
2023-05-11T12:36:59.030Z,12.5594
2023-05-11T12:37:57.431Z,12.5445
2023-05-11T12:38:59.654Z,12.5297
2023-05-11T12:40:01.890Z,12.5125
2023-05-11T12:41:04.087Z,12.5005
2023-05-11T12:42:06.280Z,12.4979
2023-05-11T12:43:08.538Z,12.5011
2023-05-11T12:44:10.764Z,12.5144
2023-05-11T12:45:13.038Z,12.5354
2023-05-11T12:46:15.322Z,12.5650
2023-05-11T12:47:17.628Z,12.5974
2023-05-11T12:48:19.868Z,12.6415
2023-05-11T12:49:25.277Z,12.7017
2023-05-11T12:50:23.420Z,12.7663
2023-05-11T12:51:25.709Z,12.8296
2023-05-11T12:52:27.971Z,12.8893
2023-05-11T12:53:30.260Z,12.9503
2023-05-11T12:54:32.461Z,13.0258
2023-05-11T12:55:34.684Z,13.1121
2023-05-11T12:56:36.956Z,13.2051
2023-05-11T12:57:39.264Z,13.3069
2023-05-11T12:58:41.518Z,13.4155
2023-05-11T12:59:43.810Z,13.5199
2023-05-11T13:00:46.012Z,13.6299
2023-05-11T13:01:48.337Z,13.7491
2023-05-11T13:02:50.680Z,13.8780
2023-05-11T13:03:53.121Z,14.0164
2023-05-11T13:04:55.455Z,14.1628
2023-05-11T13:05:58.430Z,14.3156
2023-05-11T13:06:57.901Z,14.4694
2023-05-11T13:08:00.092Z,14.6225
2023-05-11T13:09:02.382Z,14.7878
2023-05-11T13:10:04.606Z,14.9531
2023-05-11T13:11:06.841Z,15.1149
2023-05-11T13:12:09.038Z,15.2706
2023-05-11T13:13:11.268Z,15.4223
2023-05-11T13:14:13.591Z,15.5611
2023-05-11T13:15:15.810Z,15.6900
2023-05-11T13:16:18.044Z,15.8062
2023-05-11T13:17:20.214Z,15.9179
2023-05-11T13:18:22.453Z,16.0236
2023-05-11T13:19:24.752Z,16.1107
2023-05-11T13:20:26.996Z,16.1776
2023-05-11T13:21:29.227Z,16.2197
2023-05-11T13:22:31.450Z,16.2441
2023-05-11T13:23:33.673Z,16.2727
2023-05-11T13:24:35.933Z,16.2954
2023-05-11T13:25:38.160Z,16.3054
2023-05-11T13:26:40.352Z,16.3068
2023-05-11T13:27:42.600Z,16.3152
2023-05-11T13:28:48.543Z,16.3317
2023-05-11T13:29:44.835Z,16.3507
2023-05-11T13:30:47.118Z,16.3841
2023-05-11T13:31:49.436Z,16.4165
2023-05-11T13:32:51.742Z,16.4487
2023-05-11T13:33:53.987Z,16.4926
2023-05-11T13:34:56.396Z,16.5486
2023-05-11T13:35:58.757Z,16.6178
2023-05-11T13:37:00.968Z,16.7110
2023-05-11T13:38:03.153Z,16.8302
2023-05-11T13:39:05.393Z,16.9701
2023-05-11T13:40:07.599Z,17.1201
2023-05-11T13:41:09.783Z,17.2670
2023-05-11T13:42:12.017Z,17.4025
2023-05-11T13:43:14.268Z,17.5514
2023-05-11T13:44:16.457Z,17.7149
2023-05-11T13:45:18.822Z,17.8712
2023-05-11T13:46:18.846Z,18.0181
2023-05-11T13:47:21.104Z,18.1485